createdAt,value
2019-02-06T00:00:36.058Z,100.00
2019-02-06T00:03:07.524Z,100.00
2019-02-06T00:05:38.560Z,100.00
2019-02-06T00:08:09.906Z,100.00
2019-02-06T00:10:41.003Z,100.00
2019-02-06T00:13:11.960Z,100.00
2019-02-06T00:15:43.004Z,100.00
2019-02-06T00:18:14.386Z,100.00
2019-02-06T00:20:45.382Z,100.00
2019-02-06T00:23:16.478Z,100.00
2019-02-06T00:25:47.472Z,100.00
2019-02-06T00:28:18.503Z,100.00
2019-02-06T00:30:50.067Z,100.00
2019-02-06T00:33:21.166Z,100.00
2019-02-06T00:35:52.403Z,100.00
2019-02-06T00:38:23.487Z,100.00
2019-02-06T00:40:54.511Z,100.00
2019-02-06T00:43:25.914Z,100.00
2019-02-06T00:45:57.103Z,100.00
2019-02-06T00:48:28.197Z,100.00
2019-02-06T00:50:59.198Z,100.00
2019-02-06T00:53:30.248Z,100.00
2019-02-06T00:56:01.404Z,100.00
2019-02-06T00:58:32.443Z,100.00
2019-02-06T01:01:05.961Z,100.00
2019-02-06T01:03:36.937Z,100.00
2019-02-06T01:06:08.079Z,100.00
2019-02-06T01:08:39.250Z,100.00
2019-02-06T01:11:10.463Z,100.00
2019-02-06T01:13:41.341Z,100.00
2019-02-06T01:16:12.449Z,100.00
2019-02-06T01:18:43.429Z,100.00
2019-02-06T01:21:14.511Z,100.00
2019-02-06T01:23:45.980Z,100.00
2019-02-06T01:26:16.991Z,100.00
2019-02-06T01:28:48.131Z,100.00
2019-02-06T01:31:20.577Z,100.00
2019-02-06T01:33:51.535Z,100.00
2019-02-06T01:36:22.744Z,100.00
2019-02-06T01:38:53.657Z,100.00
2019-02-06T01:41:24.624Z,100.00
2019-02-06T01:43:55.699Z,100.00
2019-02-06T01:46:26.753Z,100.00
2019-02-06T01:48:57.935Z,100.00
2019-02-06T01:51:29.253Z,100.00
2019-02-06T01:54:00.186Z,100.00
2019-02-06T01:56:31.162Z,100.00
2019-02-06T01:59:02.227Z,100.00
2019-02-06T02:01:33.173Z,100.00
2019-02-06T02:04:04.693Z,100.00
2019-02-06T02:06:35.761Z,100.00
2019-02-06T02:09:09.872Z,100.00
2019-02-06T02:11:40.911Z,100.00
2019-02-06T02:14:12.025Z,100.00
2019-02-06T02:16:43.064Z,100.00
2019-02-06T02:19:14.565Z,100.00
2019-02-06T02:21:45.845Z,100.00
2019-02-06T02:24:17.081Z,100.00
2019-02-06T02:26:48.177Z,100.00
2019-02-06T02:29:19.211Z,100.00
2019-02-06T02:31:50.466Z,100.00
2019-02-06T02:34:21.533Z,100.00
2019-02-06T02:36:52.452Z,100.00
2019-02-06T02:39:23.346Z,100.00
2019-02-06T02:41:54.393Z,100.00
2019-02-06T02:44:25.464Z,100.00
2019-02-06T02:46:56.719Z,100.00
2019-02-06T02:49:27.738Z,100.00
2019-02-06T02:51:58.799Z,100.00
2019-02-06T02:54:29.863Z,100.00
2019-02-06T02:57:01.178Z,100.00
2019-02-06T02:59:32.260Z,100.00
2019-02-06T03:02:04.942Z,100.00
2019-02-06T03:04:35.980Z,100.00
2019-02-06T03:07:07.241Z,100.00
2019-02-06T03:09:38.753Z,100.00
2019-02-06T03:12:09.721Z,100.00
2019-02-06T03:14:40.758Z,100.00
2019-02-06T03:17:11.768Z,100.00
2019-02-06T03:19:42.862Z,100.00
2019-02-06T03:22:13.840Z,100.00
2019-02-06T03:24:44.768Z,100.00
2019-02-06T03:27:15.735Z,100.00
2019-02-06T03:29:46.781Z,100.00
2019-02-06T03:32:17.911Z,100.00
2019-02-06T03:34:48.901Z,100.00
2019-02-06T03:37:19.863Z,100.00
2019-02-06T03:39:50.923Z,100.00
2019-02-06T03:42:21.975Z,100.00
2019-02-06T03:44:53.230Z,100.00
2019-02-06T03:47:24.260Z,100.00
2019-02-06T03:49:55.622Z,100.00
2019-02-06T03:52:26.623Z,100.00
2019-02-06T03:54:57.738Z,100.00
2019-02-06T03:57:28.686Z,100.00
2019-02-06T03:59:59.871Z,100.00
2019-02-06T04:02:30.938Z,100.00
2019-02-06T04:05:02.046Z,100.00
2019-02-06T04:07:33.047Z,100.00
2019-02-06T04:10:06.371Z,100.00
2019-02-06T04:12:37.550Z,100.00
2019-02-06T04:15:09.782Z,100.00
2019-02-06T04:17:40.861Z,100.00
2019-02-06T04:20:18.080Z,100.00
2019-02-06T04:22:49.174Z,100.00
2019-02-06T04:25:20.215Z,100.00
2019-02-06T04:27:51.615Z,100.00
2019-02-06T04:30:22.603Z,100.00
2019-02-06T04:32:53.545Z,100.00
2019-02-06T04:35:24.611Z,100.00
2019-02-06T04:37:55.741Z,100.00
2019-02-06T04:40:26.854Z,100.00
2019-02-06T04:42:57.916Z,100.00
2019-02-06T04:45:28.995Z,100.00
2019-02-06T04:47:59.988Z,100.00
2019-02-06T04:50:31.248Z,100.00
2019-02-06T04:53:02.285Z,100.00
2019-02-06T04:55:33.543Z,100.00
2019-02-06T04:58:04.999Z,100.00
2019-02-06T05:00:36.099Z,100.00
2019-02-06T05:03:07.099Z,100.00
2019-02-06T05:05:38.258Z,100.00
2019-02-06T05:08:11.307Z,100.00
2019-02-06T05:10:42.451Z,100.00
2019-02-06T05:13:13.505Z,100.00
2019-02-06T05:15:44.579Z,100.00
2019-02-06T05:18:15.741Z,100.00
2019-02-06T05:20:46.864Z,100.00
2019-02-06T05:23:17.805Z,100.00
2019-02-06T05:25:49.095Z,100.00
2019-02-06T05:28:20.063Z,100.00
2019-02-06T05:30:51.003Z,100.00
2019-02-06T05:33:21.977Z,100.00
2019-02-06T05:35:53.253Z,100.00
2019-02-06T05:38:24.221Z,100.00
2019-02-06T05:40:55.399Z,100.00
2019-02-06T05:43:26.449Z,100.00
2019-02-06T05:45:57.421Z,100.00
2019-02-06T05:48:28.477Z,100.00
2019-02-06T05:50:59.579Z,100.00
2019-02-06T05:53:30.591Z,100.00
2019-02-06T05:56:01.611Z,100.00
2019-02-06T05:58:32.896Z,100.00
2019-02-06T06:01:04.310Z,100.00
2019-02-06T06:03:35.546Z,100.00
2019-02-06T06:06:06.795Z,100.00
2019-02-06T06:08:37.899Z,100.00
2019-02-06T06:11:08.875Z,100.00
2019-02-06T06:13:39.911Z,100.00
2019-02-06T06:16:14.037Z,100.00
2019-02-06T06:18:45.066Z,100.00
2019-02-06T06:21:16.085Z,100.00
2019-02-06T06:23:47.115Z,100.00
2019-02-06T06:26:18.029Z,100.00
2019-02-06T06:28:49.205Z,100.00
2019-02-06T06:31:20.706Z,100.00
2019-02-06T06:33:51.612Z,100.00
2019-02-06T06:36:22.669Z,100.00
2019-02-06T06:38:53.670Z,100.00
2019-02-06T06:41:24.595Z,100.00
2019-02-06T06:43:56.003Z,100.00
2019-02-06T06:46:27.074Z,100.00
2019-02-06T06:48:58.349Z,100.00
2019-02-06T06:51:29.447Z,100.00
2019-02-06T06:54:00.436Z,100.00
2019-02-06T06:56:31.402Z,100.00
2019-02-06T06:59:02.491Z,100.00
2019-02-06T07:01:33.386Z,100.00
2019-02-06T07:04:04.450Z,100.00
2019-02-06T07:06:35.516Z,100.00
2019-02-06T07:09:08.654Z,100.00
2019-02-06T07:11:39.703Z,100.00
2019-02-06T07:14:10.744Z,100.00
2019-02-06T07:16:42.126Z,100.00
2019-02-06T07:19:13.068Z,100.00
2019-02-06T07:21:44.178Z,100.00
2019-02-06T07:24:15.449Z,100.00
2019-02-06T07:26:49.108Z,100.00
2019-02-06T07:29:20.071Z,100.00
2019-02-06T07:31:51.073Z,100.00
2019-02-06T07:34:22.146Z,100.00
2019-02-06T07:36:53.350Z,100.00
2019-02-06T07:39:24.536Z,100.00
2019-02-06T07:41:55.417Z,100.00
2019-02-06T07:44:26.328Z,100.00
2019-02-06T07:46:57.250Z,100.00
2019-02-06T07:49:28.536Z,100.00
2019-02-06T07:51:59.562Z,100.00
2019-02-06T07:54:30.537Z,100.00
2019-02-06T07:57:01.568Z,100.00
2019-02-06T07:59:32.683Z,100.00
2019-02-06T08:02:03.745Z,100.00
2019-02-06T08:04:34.725Z,100.00
2019-02-06T08:07:05.855Z,100.00
2019-02-06T08:09:37.106Z,100.00
2019-02-06T08:12:08.058Z,100.00
2019-02-06T08:14:39.134Z,100.00
2019-02-06T08:17:10.421Z,100.00
2019-02-06T08:19:41.513Z,100.00
2019-02-06T08:22:12.582Z,100.00
2019-02-06T08:24:43.621Z,100.00
2019-02-06T08:27:14.588Z,100.00
2019-02-06T08:29:45.707Z,100.00
2019-02-06T08:32:19.473Z,99.89
2019-02-06T08:34:50.745Z,100.00
2019-02-06T08:37:22.240Z,100.00
2019-02-06T08:39:53.280Z,100.00
2019-02-06T08:42:24.357Z,100.00
2019-02-06T08:44:55.387Z,100.00
2019-02-06T08:47:26.463Z,100.00
2019-02-06T08:49:57.421Z,100.00
2019-02-06T08:52:28.544Z,100.00
2019-02-06T08:54:59.545Z,100.00
2019-02-06T08:57:30.649Z,100.00
2019-02-06T09:00:01.532Z,100.00
2019-02-06T09:02:32.912Z,100.00
2019-02-06T09:05:07.643Z,100.00
2019-02-06T09:07:38.339Z,100.00
2019-02-06T09:10:13.424Z,99.48
2019-02-06T09:12:44.577Z,98.93
2019-02-06T09:15:15.959Z,98.31
2019-02-06T09:17:47.145Z,98.27
2019-02-06T09:20:20.508Z,97.78
2019-02-06T09:22:51.814Z,97.35
2019-02-06T09:25:26.946Z,97.69
2019-02-06T09:27:57.997Z,97.74
2019-02-06T09:30:34.201Z,97.62
2019-02-06T09:33:05.757Z,97.26
2019-02-06T09:35:36.809Z,96.85
2019-02-06T09:38:07.912Z,96.00
2019-02-06T09:40:38.883Z,94.94
2019-02-06T09:43:09.861Z,93.72
2019-02-06T09:45:40.826Z,92.91
2019-02-06T09:48:11.862Z,92.92
2019-02-06T09:50:42.895Z,92.68
2019-02-06T09:53:13.851Z,92.47
2019-02-06T09:55:44.874Z,93.43
2019-02-06T09:58:15.902Z,93.31
2019-02-06T10:00:48.851Z,92.64
2019-02-06T10:03:19.731Z,92.45
2019-02-06T10:05:50.789Z,92.13
2019-02-06T10:08:21.781Z,90.93
2019-02-06T10:10:52.885Z,90.26
2019-02-06T10:13:23.712Z,90.19
2019-02-06T10:15:54.686Z,90.26
2019-02-06T10:18:25.769Z,91.02
2019-02-06T10:20:56.837Z,91.18
2019-02-06T10:23:27.930Z,91.42
2019-02-06T10:25:58.888Z,90.64
2019-02-06T10:28:30.351Z,89.14
2019-02-06T10:31:01.537Z,89.13
2019-02-06T10:33:32.503Z,89.41
2019-02-06T10:36:03.473Z,88.98
2019-02-06T10:38:34.453Z,87.51
2019-02-06T10:41:05.784Z,86.23
2019-02-06T10:43:36.981Z,86.39
2019-02-06T10:46:08.019Z,86.61
2019-02-06T10:48:38.963Z,86.64
2019-02-06T10:51:10.214Z,86.95
2019-02-06T10:53:41.737Z,85.25
2019-02-06T10:56:12.819Z,84.48
2019-02-06T10:58:43.793Z,83.63
2019-02-06T11:01:14.698Z,82.70
2019-02-06T11:03:45.629Z,81.95
2019-02-06T11:06:16.689Z,81.18
2019-02-06T11:08:47.615Z,79.62
2019-02-06T11:11:18.651Z,79.54
2019-02-06T11:13:49.988Z,77.91
2019-02-06T11:16:21.489Z,79.16
2019-02-06T11:18:52.436Z,79.74
2019-02-06T11:21:23.644Z,79.37
2019-02-06T11:23:54.593Z,77.37
2019-02-06T11:26:26.007Z,76.48
2019-02-06T11:28:56.908Z,74.87
2019-02-06T11:31:27.878Z,73.39
2019-02-06T11:33:59.319Z,70.91
2019-02-06T11:36:30.453Z,70.44
2019-02-06T11:39:01.403Z,70.66
2019-02-06T11:41:32.579Z,71.50
2019-02-06T11:44:04.223Z,68.20
2019-02-06T11:46:35.178Z,63.74
2019-02-06T11:49:07.021Z,60.89
2019-02-06T11:51:40.856Z,60.25
2019-02-06T11:54:13.132Z,60.68
2019-02-06T11:56:44.283Z,59.37
2019-02-06T11:59:15.531Z,58.67
2019-02-06T12:01:46.654Z,59.41
2019-02-06T12:04:17.913Z,57.20
2019-02-06T12:06:49.012Z,56.86
2019-02-06T12:09:20.058Z,56.58
2019-02-06T12:11:51.015Z,58.46
2019-02-06T12:14:22.008Z,60.76
2019-02-06T12:16:53.180Z,59.73
2019-02-06T12:19:24.227Z,59.16
2019-02-06T12:21:55.287Z,59.81
2019-02-06T12:24:32.002Z,61.26
2019-02-06T12:27:03.057Z,61.95
2019-02-06T12:29:34.016Z,60.75
2019-02-06T12:32:05.560Z,61.27
2019-02-06T12:34:36.518Z,57.98
2019-02-06T12:37:07.414Z,56.62
2019-02-06T12:39:38.848Z,54.43
2019-02-06T12:42:10.386Z,54.70
2019-02-06T12:44:42.798Z,54.20
2019-02-06T12:47:14.380Z,55.11
2019-02-06T12:49:45.552Z,55.85
2019-02-06T12:52:16.635Z,55.12
2019-02-06T12:54:48.248Z,55.00
2019-02-06T12:57:19.285Z,53.66
2019-02-06T12:59:50.243Z,51.75
2019-02-06T13:02:21.431Z,52.65
2019-02-06T13:04:54.070Z,52.56
2019-02-06T13:07:25.120Z,51.30
2019-02-06T13:09:56.165Z,52.88
2019-02-06T13:12:27.432Z,52.27
2019-02-06T13:14:58.854Z,52.77
2019-02-06T13:17:29.868Z,51.96
2019-02-06T13:20:00.974Z,53.61
2019-02-06T13:22:34.052Z,54.81
2019-02-06T13:25:07.856Z,53.43
2019-02-06T13:27:38.800Z,52.88
2019-02-06T13:30:21.469Z,52.91
2019-02-06T13:32:52.842Z,51.76
2019-02-06T13:35:23.897Z,52.89
2019-02-06T13:37:54.993Z,52.88
2019-02-06T13:40:29.901Z,57.09
2019-02-06T13:43:01.041Z,59.17
2019-02-06T13:45:43.581Z,58.42
2019-02-06T13:48:14.622Z,55.97
2019-02-06T13:50:47.413Z,53.38
2019-02-06T13:53:18.441Z,51.10
2019-02-06T13:55:49.855Z,52.64
2019-02-06T13:58:21.001Z,54.46
2019-02-06T14:00:52.641Z,54.79
2019-02-06T14:03:23.756Z,54.97
2019-02-06T14:05:54.912Z,55.97
2019-02-06T14:08:28.611Z,57.93
2019-02-06T14:11:00.841Z,56.77
2019-02-06T14:13:32.172Z,58.44
2019-02-06T14:16:03.623Z,58.97
2019-02-06T14:18:34.684Z,59.96
2019-02-06T14:21:05.861Z,60.15
2019-02-06T14:23:39.817Z,61.58
2019-02-06T14:26:16.338Z,61.86
2019-02-06T14:29:11.007Z,62.96
2019-02-06T14:31:56.221Z,63.40
2019-02-06T14:34:41.993Z,63.60
2019-02-06T14:37:27.674Z,64.29
2019-02-06T14:40:01.451Z,62.03
2019-02-06T14:42:41.022Z,62.27
2019-02-06T14:45:27.345Z,65.21
2019-02-06T14:48:07.103Z,67.56
2019-02-06T14:51:00.383Z,65.05
2019-02-06T14:53:49.397Z,67.16
2019-02-06T14:56:26.367Z,65.44
2019-02-06T14:59:20.518Z,66.35
2019-02-06T15:02:12.651Z,68.09
2019-02-06T15:04:55.367Z,68.48
2019-02-06T15:07:35.189Z,69.75
2019-02-06T15:10:29.054Z,70.56
2019-02-06T15:13:21.215Z,69.27
2019-02-06T15:16:04.082Z,68.87
2019-02-06T15:18:38.093Z,71.26
2019-02-06T15:21:39.522Z,70.95
2019-02-06T15:24:38.071Z,73.05
2019-02-06T15:27:33.026Z,75.71
2019-02-06T15:30:20.033Z,77.22
2019-02-06T15:33:08.545Z,77.49
2019-02-06T15:35:45.663Z,77.51
2019-02-06T15:38:46.669Z,78.35
2019-02-06T15:41:31.311Z,79.44
2019-02-06T15:44:05.431Z,81.18
2019-02-06T15:46:42.430Z,82.77
2019-02-06T15:49:33.221Z,83.73
2019-02-06T15:52:18.987Z,85.17
2019-02-06T15:54:58.769Z,87.03
2019-02-06T15:57:41.504Z,88.00
2019-02-06T16:00:27.572Z,89.09
2019-02-06T16:03:07.618Z,89.95
2019-02-06T16:05:59.424Z,90.70
2019-02-06T16:08:42.321Z,91.02
2019-02-06T16:11:27.864Z,91.87
2019-02-06T16:14:07.339Z,92.68
2019-02-06T16:16:44.271Z,93.37
2019-02-06T16:19:47.670Z,93.79
2019-02-06T16:22:33.743Z,94.35
2019-02-06T16:25:07.714Z,94.92
2019-02-06T16:27:44.245Z,95.75
2019-02-06T16:30:24.152Z,96.08
2019-02-06T16:33:19.550Z,96.61
2019-02-06T16:35:56.323Z,96.69
2019-02-06T16:38:33.157Z,97.06
2019-02-06T16:41:25.190Z,97.61
2019-02-06T16:44:02.148Z,97.90
2019-02-06T16:46:36.114Z,98.34
2019-02-06T16:49:16.370Z,99.02
2019-02-06T16:51:59.373Z,99.22
2019-02-06T16:54:45.159Z,99.44
2019-02-06T16:57:33.526Z,99.49
2019-02-06T17:00:19.080Z,100.00
2019-02-06T17:02:53.432Z,100.00
2019-02-06T17:05:36.765Z,100.00
2019-02-06T17:08:10.747Z,100.00
2019-02-06T17:11:06.750Z,100.00
2019-02-06T17:13:57.040Z,100.00
2019-02-06T17:16:49.484Z,100.00
2019-02-06T17:19:29.226Z,100.00
2019-02-06T17:22:18.410Z,100.00
2019-02-06T17:25:06.061Z,100.00
2019-02-06T17:27:49.208Z,100.00
2019-02-06T17:30:42.852Z,100.00
2019-02-06T17:33:16.876Z,100.00
2019-02-06T17:35:56.980Z,100.00
2019-02-06T17:38:56.588Z,100.00
2019-02-06T17:41:36.173Z,100.00
2019-02-06T17:44:17.404Z,100.00
2019-02-06T17:46:57.371Z,100.00
2019-02-06T17:49:40.395Z,100.00
2019-02-06T17:52:14.395Z,100.00
2019-02-06T17:55:20.120Z,100.00
2019-02-06T17:57:52.590Z,100.00
2019-02-06T18:00:48.058Z,100.00
2019-02-06T18:03:20.164Z,100.00
2019-02-06T18:05:53.527Z,100.00
2019-02-06T18:08:24.562Z,100.00
2019-02-06T18:10:58.680Z,100.00
2019-02-06T18:13:33.076Z,100.00
2019-02-06T18:16:04.305Z,100.00
2019-02-06T18:18:35.423Z,100.00
2019-02-06T18:21:06.626Z,100.00
2019-02-06T18:23:37.815Z,100.00
2019-02-06T18:26:09.215Z,100.00
2019-02-06T18:28:40.485Z,100.00
2019-02-06T18:31:11.862Z,100.00
2019-02-06T18:33:43.067Z,100.00
2019-02-06T18:36:14.116Z,100.00
2019-02-06T18:38:47.091Z,100.00
2019-02-06T18:41:20.997Z,100.00
2019-02-06T18:44:04.544Z,100.00
2019-02-06T18:46:35.795Z,100.00
2019-02-06T18:49:07.230Z,100.00
2019-02-06T18:51:38.767Z,100.00
2019-02-06T18:54:10.302Z,100.00
2019-02-06T18:56:41.447Z,100.00
2019-02-06T18:59:12.738Z,100.00
2019-02-06T19:01:45.471Z,100.00
2019-02-06T19:04:16.491Z,100.00
2019-02-06T19:06:47.524Z,100.00
2019-02-06T19:09:18.751Z,100.00
2019-02-06T19:11:49.991Z,100.00
2019-02-06T19:14:23.061Z,100.00
2019-02-06T19:16:54.179Z,100.00
2019-02-06T19:19:25.834Z,100.00
2019-02-06T19:21:56.790Z,100.00
2019-02-06T19:24:30.420Z,100.00
2019-02-06T19:27:02.796Z,100.00
2019-02-06T19:29:34.020Z,100.00
2019-02-06T19:32:05.383Z,100.00
2019-02-06T19:34:36.436Z,100.00
2019-02-06T19:37:07.546Z,100.00
2019-02-06T19:39:38.771Z,100.00
2019-02-06T19:42:10.379Z,100.00
2019-02-06T19:44:59.302Z,100.00
2019-02-06T19:47:32.143Z,100.00
2019-02-06T19:50:04.323Z,100.00
2019-02-06T19:52:40.260Z,100.00
2019-02-06T19:55:14.019Z,100.00
2019-02-06T19:57:45.200Z,100.00
2019-02-06T20:00:22.140Z,100.00
2019-02-06T20:02:53.214Z,100.00
2019-02-06T20:05:24.624Z,100.00
2019-02-06T20:07:55.788Z,100.00
2019-02-06T20:10:35.445Z,100.00
2019-02-06T20:13:12.335Z,100.00
2019-02-06T20:15:39.877Z,100.00
2019-02-06T20:18:11.163Z,100.00
2019-02-06T20:20:42.112Z,100.00
2019-02-06T20:23:13.253Z,100.00
2019-02-06T20:25:45.471Z,100.00
2019-02-06T20:28:16.569Z,100.00
2019-02-06T20:30:47.726Z,100.00
2019-02-06T20:33:19.394Z,100.00
2019-02-06T20:35:50.558Z,100.00
2019-02-06T20:38:21.702Z,100.00
2019-02-06T20:40:52.931Z,100.00
2019-02-06T20:43:23.951Z,100.00
2019-02-06T20:45:54.939Z,100.00
2019-02-06T20:48:26.162Z,100.00
2019-02-06T20:50:57.304Z,100.00
2019-02-06T20:53:28.393Z,100.00
2019-02-06T20:55:59.506Z,100.00
2019-02-06T20:58:30.624Z,100.00
2019-02-06T21:01:01.779Z,100.00
2019-02-06T21:03:32.808Z,100.00
2019-02-06T21:06:03.990Z,100.00
2019-02-06T21:08:35.244Z,100.00
2019-02-06T21:11:06.472Z,100.00
2019-02-06T21:13:37.526Z,100.00
2019-02-06T21:16:09.223Z,100.00
2019-02-06T21:18:40.149Z,100.00
2019-02-06T21:21:11.206Z,100.00
2019-02-06T21:23:42.262Z,100.00
2019-02-06T21:26:13.531Z,100.00
2019-02-06T21:28:44.564Z,100.00
2019-02-06T21:31:15.734Z,100.00
2019-02-06T21:33:46.788Z,100.00
2019-02-06T21:36:17.894Z,100.00
2019-02-06T21:38:49.031Z,100.00
2019-02-06T21:41:20.097Z,100.00
2019-02-06T21:43:51.131Z,100.00
2019-02-06T21:46:22.247Z,100.00
2019-02-06T21:48:53.366Z,100.00
2019-02-06T21:51:24.402Z,100.00
2019-02-06T21:53:55.841Z,100.00
2019-02-06T21:56:27.189Z,100.00
2019-02-06T21:58:58.452Z,100.00
2019-02-06T22:01:30.279Z,100.00
2019-02-06T22:04:01.541Z,100.00
2019-02-06T22:06:32.527Z,100.00
2019-02-06T22:09:04.598Z,100.00
2019-02-06T22:11:35.751Z,100.00
2019-02-06T22:14:06.952Z,100.00
2019-02-06T22:16:38.086Z,100.00
2019-02-06T22:19:09.560Z,100.00
2019-02-06T22:21:40.849Z,100.00
2019-02-06T22:24:11.887Z,100.00
2019-02-06T22:26:42.943Z,100.00
2019-02-06T22:29:14.014Z,100.00
2019-02-06T22:31:45.177Z,100.00
2019-02-06T22:34:16.440Z,100.00
2019-02-06T22:36:47.540Z,100.00
2019-02-06T22:39:18.621Z,100.00
2019-02-06T22:41:49.764Z,100.00
2019-02-06T22:44:20.838Z,100.00
2019-02-06T22:46:51.847Z,100.00
2019-02-06T22:49:22.811Z,100.00
2019-02-06T22:51:53.882Z,100.00
2019-02-06T22:54:25.026Z,100.00
2019-02-06T22:56:56.689Z,100.00
2019-02-06T22:59:27.670Z,100.00
2019-02-06T23:01:58.767Z,100.00
2019-02-06T23:04:30.167Z,100.00
2019-02-06T23:07:01.283Z,100.00
2019-02-06T23:09:32.714Z,100.00
2019-02-06T23:12:04.097Z,100.00
2019-02-06T23:14:35.165Z,100.00
2019-02-06T23:17:06.322Z,100.00
2019-02-06T23:19:37.410Z,100.00
2019-02-06T23:22:08.512Z,100.00
2019-02-06T23:24:39.651Z,100.00
2019-02-06T23:27:10.719Z,100.00
2019-02-06T23:29:41.769Z,100.00
2019-02-06T23:32:12.949Z,100.00
2019-02-06T23:34:43.903Z,100.00
2019-02-06T23:37:14.949Z,100.00
2019-02-06T23:39:45.889Z,100.00
2019-02-06T23:42:16.975Z,100.00
2019-02-06T23:44:48.040Z,100.00
2019-02-06T23:47:19.109Z,100.00
2019-02-06T23:49:50.232Z,100.00
2019-02-06T23:52:21.491Z,100.00
2019-02-06T23:54:52.480Z,100.00
2019-02-06T23:57:23.618Z,100.00
2019-02-06T23:59:54.657Z,100.00
